sensor_id;sensor_type;location;lat;lon;timestamp;P1;durP1;ratioP1;P2;durP2;ratioP2
10479;SDS011;12789;42.610;23.040;2022-10-31T00:00:05;27.37;;;14.70;;
10479;SDS011;12789;42.610;23.040;2022-10-31T00:02:33;23.37;;;14.63;;
10479;SDS011;12789;42.610;23.040;2022-10-31T00:05:00;27.27;;;16.10;;
10479;SDS011;12789;42.610;23.040;2022-10-31T00:07:27;28.33;;;14.53;;
10479;SDS011;12789;42.610;23.040;2022-10-31T00:09:54;26.87;;;14.83;;
10479;SDS011;12789;42.610;23.040;2022-10-31T00:12:21;32.13;;;16.67;;
10479;SDS011;12789;42.610;23.040;2022-10-31T00:14:49;30.23;;;17.03;;
10479;SDS011;12789;42.610;23.040;2022-10-31T00:17:16;33.77;;;16.37;;
10479;SDS011;12789;42.610;23.040;2022-10-31T00:19:43;37.37;;;17.13;;
10479;SDS011;12789;42.610;23.040;2022-10-31T00:22:10;32.20;;;16.17;;
10479;SDS011;12789;42.610;23.040;2022-10-31T00:24:37;31.13;;;16.27;;
10479;SDS011;12789;42.610;23.040;2022-10-31T00:27:04;34.47;;;14.70;;
10479;SDS011;12789;42.610;23.040;2022-10-31T00:29:31;19.97;;;12.03;;
10479;SDS011;12789;42.610;23.040;2022-10-31T00:31:59;27.43;;;11.00;;
10479;SDS011;12789;42.610;23.040;2022-10-31T00:34:26;21.27;;;10.80;;
10479;SDS011;12789;42.610;23.040;2022-10-31T00:36:53;23.40;;;10.73;;
10479;SDS011;12789;42.610;23.040;2022-10-31T00:39:20;26.33;;;11.67;;
10479;SDS011;12789;42.610;23.040;2022-10-31T00:41:47;19.87;;;10.40;;
10479;SDS011;12789;42.610;23.040;2022-10-31T00:44:14;16.63;;;9.17;;
10479;SDS011;12789;42.610;23.040;2022-10-31T00:46:41;29.03;;;10.03;;
10479;SDS011;12789;42.610;23.040;2022-10-31T00:49:09;24.63;;;10.43;;
10479;SDS011;12789;42.610;23.040;2022-10-31T00:51:36;23.43;;;10.67;;
10479;SDS011;12789;42.610;23.040;2022-10-31T00:54:03;21.23;;;12.07;;
10479;SDS011;12789;42.610;23.040;2022-10-31T00:56:30;20.60;;;11.60;;
10479;SDS011;12789;42.610;23.040;2022-10-31T00:58:57;21.10;;;10.63;;
10479;SDS011;12789;42.610;23.040;2022-10-31T01:01:24;25.80;;;12.53;;
10479;SDS011;12789;42.610;23.040;2022-10-31T01:03:51;25.87;;;12.30;;
10479;SDS011;12789;42.610;23.040;2022-10-31T01:06:19;24.27;;;12.67;;
10479;SDS011;12789;42.610;23.040;2022-10-31T01:08:46;26.43;;;12.43;;
10479;SDS011;12789;42.610;23.040;2022-10-31T01:11:14;24.77;;;11.20;;
10479;SDS011;12789;42.610;23.040;2022-10-31T01:13:42;30.80;;;12.13;;
10479;SDS011;12789;42.610;23.040;2022-10-31T01:16:10;26.17;;;12.50;;
10479;SDS011;12789;42.610;23.040;2022-10-31T01:18:38;22.13;;;11.93;;
10479;SDS011;12789;42.610;23.040;2022-10-31T01:21:06;27.07;;;11.93;;
10479;SDS011;12789;42.610;23.040;2022-10-31T01:23:36;21.30;;;10.00;;
10479;SDS011;12789;42.610;23.040;2022-10-31T01:26:06;22.27;;;10.53;;
10479;SDS011;12789;42.610;23.040;2022-10-31T01:28:35;22.67;;;10.97;;
10479;SDS011;12789;42.610;23.040;2022-10-31T01:31:04;23.47;;;10.83;;
10479;SDS011;12789;42.610;23.040;2022-10-31T01:33:32;20.20;;;10.50;;
10479;SDS011;12789;42.610;23.040;2022-10-31T01:36:00;26.30;;;11.00;;
10479;SDS011;12789;42.610;23.040;2022-10-31T01:38:27;25.93;;;12.17;;
10479;SDS011;12789;42.610;23.040;2022-10-31T01:40:55;33.00;;;11.73;;
10479;SDS011;12789;42.610;23.040;2022-10-31T01:43:22;29.47;;;11.83;;
10479;SDS011;12789;42.610;23.040;2022-10-31T01:45:50;22.53;;;10.93;;
10479;SDS011;12789;42.610;23.040;2022-10-31T01:48:20;26.83;;;11.10;;
10479;SDS011;12789;42.610;23.040;2022-10-31T01:50:56;22.87;;;11.50;;
10479;SDS011;12789;42.610;23.040;2022-10-31T01:53:23;26.33;;;10.97;;
10479;SDS011;12789;42.610;23.040;2022-10-31T01:55:50;21.20;;;10.87;;
10479;SDS011;12789;42.610;23.040;2022-10-31T01:58:20;22.67;;;11.00;;
10479;SDS011;12789;42.610;23.040;2022-10-31T02:00:51;26.93;;;11.13;;
10479;SDS011;12789;42.610;23.040;2022-10-31T02:03:22;21.27;;;11.07;;
10479;SDS011;12789;42.610;23.040;2022-10-31T02:05:50;23.00;;;10.70;;
10479;SDS011;12789;42.610;23.040;2022-10-31T02:08:20;21.07;;;10.87;;
10479;SDS011;12789;42.610;23.040;2022-10-31T02:10:51;20.17;;;10.90;;
10479;SDS011;12789;42.610;23.040;2022-10-31T02:13:21;19.60;;;11.27;;
10479;SDS011;12789;42.610;23.040;2022-10-31T02:15:49;24.87;;;11.53;;
10479;SDS011;12789;42.610;23.040;2022-10-31T02:18:18;19.70;;;11.67;;
10479;SDS011;12789;42.610;23.040;2022-10-31T02:20:48;23.97;;;11.83;;
10479;SDS011;12789;42.610;23.040;2022-10-31T02:26:53;24.73;;;12.27;;
10479;SDS011;12789;42.610;23.040;2022-10-31T02:32:35;25.57;;;11.13;;
10479;SDS011;12789;42.610;23.040;2022-10-31T02:35:10;21.30;;;9.47;;
10479;SDS011;12789;42.610;23.040;2022-10-31T02:37:43;21.60;;;10.20;;
10479;SDS011;12789;42.610;23.040;2022-10-31T02:40:19;22.47;;;9.70;;
10479;SDS011;12789;42.610;23.040;2022-10-31T02:42:54;22.43;;;9.77;;
10479;SDS011;12789;42.610;23.040;2022-10-31T02:45:28;26.27;;;9.37;;
10479;SDS011;12789;42.610;23.040;2022-10-31T02:48:02;24.30;;;8.40;;
10479;SDS011;12789;42.610;23.040;2022-10-31T02:50:35;26.03;;;9.13;;
10479;SDS011;12789;42.610;23.040;2022-10-31T02:53:06;20.83;;;8.83;;
10479;SDS011;12789;42.610;23.040;2022-10-31T02:55:42;16.00;;;9.20;;
10479;SDS011;12789;42.610;23.040;2022-10-31T02:58:17;21.57;;;9.17;;
10479;SDS011;12789;42.610;23.040;2022-10-31T03:00:49;24.10;;;9.33;;
10479;SDS011;12789;42.610;23.040;2022-10-31T03:03:36;21.43;;;9.67;;
10479;SDS011;12789;42.610;23.040;2022-10-31T03:06:15;22.20;;;10.57;;
10479;SDS011;12789;42.610;23.040;2022-10-31T03:08:48;20.57;;;9.67;;
10479;SDS011;12789;42.610;23.040;2022-10-31T03:11:21;20.10;;;9.87;;
10479;SDS011;12789;42.610;23.040;2022-10-31T03:13:54;26.27;;;9.57;;
10479;SDS011;12789;42.610;23.040;2022-10-31T03:16:29;22.43;;;10.43;;
10479;SDS011;12789;42.610;23.040;2022-10-31T03:19:06;20.37;;;9.07;;
10479;SDS011;12789;42.610;23.040;2022-10-31T03:21:36;27.47;;;10.13;;
10479;SDS011;12789;42.610;23.040;2022-10-31T03:24:08;20.77;;;9.13;;
10479;SDS011;12789;42.610;23.040;2022-10-31T03:26:38;22.20;;;9.93;;
10479;SDS011;12789;42.610;23.040;2022-10-31T03:29:08;25.43;;;10.10;;
10479;SDS011;12789;42.610;23.040;2022-10-31T03:31:41;24.73;;;9.57;;
10479;SDS011;12789;42.610;23.040;2022-10-31T03:34:14;21.03;;;10.80;;
10479;SDS011;12789;42.610;23.040;2022-10-31T03:36:45;17.40;;;10.20;;
10479;SDS011;12789;42.610;23.040;2022-10-31T03:39:15;23.83;;;11.40;;
10479;SDS011;12789;42.610;23.040;2022-10-31T03:41:46;19.90;;;10.90;;
10479;SDS011;12789;42.610;23.040;2022-10-31T03:44:20;25.77;;;10.83;;
10479;SDS011;12789;42.610;23.040;2022-10-31T03:46:49;23.70;;;11.13;;
10479;SDS011;12789;42.610;23.040;2022-10-31T03:49:18;20.20;;;11.13;;
10479;SDS011;12789;42.610;23.040;2022-10-31T03:51:46;22.30;;;10.97;;
10479;SDS011;12789;42.610;23.040;2022-10-31T03:54:22;24.03;;;10.50;;
10479;SDS011;12789;42.610;23.040;2022-10-31T03:56:54;17.63;;;10.87;;
10479;SDS011;12789;42.610;23.040;2022-10-31T03:59:25;19.40;;;10.80;;
10479;SDS011;12789;42.610;23.040;2022-10-31T04:01:57;26.03;;;11.20;;
10479;SDS011;12789;42.610;23.040;2022-10-31T04:04:29;29.10;;;11.40;;
10479;SDS011;12789;42.610;23.040;2022-10-31T04:06:57;28.10;;;11.20;;
10479;SDS011;12789;42.610;23.040;2022-10-31T04:09:26;21.50;;;12.57;;
10479;SDS011;12789;42.610;23.040;2022-10-31T04:11:58;24.60;;;12.37;;
10479;SDS011;12789;42.610;23.040;2022-10-31T04:14:30;28.83;;;12.93;;
10479;SDS011;12789;42.610;23.040;2022-10-31T04:17:00;23.53;;;11.53;;
10479;SDS011;12789;42.610;23.040;2022-10-31T04:19:31;24.67;;;11.80;;
10479;SDS011;12789;42.610;23.040;2022-10-31T04:21:58;21.93;;;11.63;;
10479;SDS011;12789;42.610;23.040;2022-10-31T04:24:25;25.77;;;11.60;;
10479;SDS011;12789;42.610;23.040;2022-10-31T04:26:52;25.63;;;13.03;;
10479;SDS011;12789;42.610;23.040;2022-10-31T04:29:19;32.50;;;12.70;;
10479;SDS011;12789;42.610;23.040;2022-10-31T04:31:46;28.07;;;12.23;;
10479;SDS011;12789;42.610;23.040;2022-10-31T04:34:13;25.87;;;13.17;;
10479;SDS011;12789;42.610;23.040;2022-10-31T04:36:41;28.53;;;12.37;;
10479;SDS011;12789;42.610;23.040;2022-10-31T04:39:08;26.40;;;13.20;;
10479;SDS011;12789;42.610;23.040;2022-10-31T04:41:35;28.17;;;14.07;;
10479;SDS011;12789;42.610;23.040;2022-10-31T04:44:02;32.57;;;14.13;;
10479;SDS011;12789;42.610;23.040;2022-10-31T04:46:29;28.97;;;13.37;;
10479;SDS011;12789;42.610;23.040;2022-10-31T04:48:56;28.87;;;13.73;;
10479;SDS011;12789;42.610;23.040;2022-10-31T04:51:23;29.83;;;14.43;;
10479;SDS011;12789;42.610;23.040;2022-10-31T04:53:51;28.93;;;13.23;;
10479;SDS011;12789;42.610;23.040;2022-10-31T04:56:18;32.23;;;14.57;;
10479;SDS011;12789;42.610;23.040;2022-10-31T04:58:45;27.07;;;13.83;;
10479;SDS011;12789;42.610;23.040;2022-10-31T05:01:12;44.10;;;15.13;;
10479;SDS011;12789;42.610;23.040;2022-10-31T05:03:39;30.00;;;13.97;;
10479;SDS011;12789;42.610;23.040;2022-10-31T05:06:06;36.80;;;14.20;;
10479;SDS011;12789;42.610;23.040;2022-10-31T05:08:33;25.50;;;14.17;;
10479;SDS011;12789;42.610;23.040;2022-10-31T05:11:01;28.80;;;13.93;;
10479;SDS011;12789;42.610;23.040;2022-10-31T05:13:29;28.40;;;14.60;;
10479;SDS011;12789;42.610;23.040;2022-10-31T05:15:56;30.83;;;14.67;;
10479;SDS011;12789;42.610;23.040;2022-10-31T05:18:23;41.73;;;14.93;;
10479;SDS011;12789;42.610;23.040;2022-10-31T05:20:50;26.63;;;14.97;;
10479;SDS011;12789;42.610;23.040;2022-10-31T05:23:17;32.40;;;15.40;;
10479;SDS011;12789;42.610;23.040;2022-10-31T05:25:44;29.87;;;14.60;;
10479;SDS011;12789;42.610;23.040;2022-10-31T05:28:12;43.00;;;15.43;;
10479;SDS011;12789;42.610;23.040;2022-10-31T05:30:39;45.27;;;18.57;;
10479;SDS011;12789;42.610;23.040;2022-10-31T05:33:06;46.37;;;17.97;;
10479;SDS011;12789;42.610;23.040;2022-10-31T05:35:33;49.27;;;18.97;;
10479;SDS011;12789;42.610;23.040;2022-10-31T05:38:00;40.30;;;18.27;;
10479;SDS011;12789;42.610;23.040;2022-10-31T05:40:27;43.23;;;18.70;;
10479;SDS011;12789;42.610;23.040;2022-10-31T05:42:55;50.33;;;18.87;;
10479;SDS011;12789;42.610;23.040;2022-10-31T05:45:24;46.13;;;17.70;;
10479;SDS011;12789;42.610;23.040;2022-10-31T05:47:52;42.63;;;17.40;;
10479;SDS011;12789;42.610;23.040;2022-10-31T05:50:19;42.43;;;17.43;;
10479;SDS011;12789;42.610;23.040;2022-10-31T05:52:47;44.27;;;16.87;;
10479;SDS011;12789;42.610;23.040;2022-10-31T05:55:20;48.23;;;17.70;;
10479;SDS011;12789;42.610;23.040;2022-10-31T05:57:47;29.67;;;15.70;;
10479;SDS011;12789;42.610;23.040;2022-10-31T06:00:14;37.50;;;17.03;;
10479;SDS011;12789;42.610;23.040;2022-10-31T06:02:42;43.47;;;17.13;;
10479;SDS011;12789;42.610;23.040;2022-10-31T06:05:10;40.87;;;18.53;;
10479;SDS011;12789;42.610;23.040;2022-10-31T06:07:38;38.93;;;17.73;;
10479;SDS011;12789;42.610;23.040;2022-10-31T06:10:06;52.57;;;18.60;;
10479;SDS011;12789;42.610;23.040;2022-10-31T06:12:34;40.80;;;18.40;;
10479;SDS011;12789;42.610;23.040;2022-10-31T06:15:03;48.20;;;17.73;;
10479;SDS011;12789;42.610;23.040;2022-10-31T06:17:32;42.93;;;16.50;;
10479;SDS011;12789;42.610;23.040;2022-10-31T06:20:04;44.73;;;16.53;;
10479;SDS011;12789;42.610;23.040;2022-10-31T06:22:32;38.53;;;17.63;;
10479;SDS011;12789;42.610;23.040;2022-10-31T06:25:00;54.23;;;19.03;;
10479;SDS011;12789;42.610;23.040;2022-10-31T06:27:32;43.03;;;19.10;;
10479;SDS011;12789;42.610;23.040;2022-10-31T06:29:59;41.73;;;21.03;;
10479;SDS011;12789;42.610;23.040;2022-10-31T06:32:31;56.00;;;21.70;;
10479;SDS011;12789;42.610;23.040;2022-10-31T06:35:04;42.97;;;19.80;;
10479;SDS011;12789;42.610;23.040;2022-10-31T06:37:31;36.33;;;18.70;;
10479;SDS011;12789;42.610;23.040;2022-10-31T06:39:59;35.83;;;17.90;;
10479;SDS011;12789;42.610;23.040;2022-10-31T06:42:26;38.20;;;17.93;;
10479;SDS011;12789;42.610;23.040;2022-10-31T06:44:53;42.40;;;19.03;;
10479;SDS011;12789;42.610;23.040;2022-10-31T06:47:20;37.87;;;17.90;;
10479;SDS011;12789;42.610;23.040;2022-10-31T06:49:48;48.57;;;18.50;;
10479;SDS011;12789;42.610;23.040;2022-10-31T06:52:17;57.60;;;18.40;;
10479;SDS011;12789;42.610;23.040;2022-10-31T06:54:44;39.77;;;17.30;;
10479;SDS011;12789;42.610;23.040;2022-10-31T06:57:11;43.80;;;17.47;;
10479;SDS011;12789;42.610;23.040;2022-10-31T06:59:38;43.70;;;17.87;;
10479;SDS011;12789;42.610;23.040;2022-10-31T07:02:07;42.23;;;18.27;;
10479;SDS011;12789;42.610;23.040;2022-10-31T07:04:36;48.30;;;17.93;;
10479;SDS011;12789;42.610;23.040;2022-10-31T07:07:03;39.10;;;17.13;;
10479;SDS011;12789;42.610;23.040;2022-10-31T07:09:31;43.83;;;16.77;;
10479;SDS011;12789;42.610;23.040;2022-10-31T07:11:59;36.83;;;16.33;;
10479;SDS011;12789;42.610;23.040;2022-10-31T07:14:25;34.83;;;17.10;;
10479;SDS011;12789;42.610;23.040;2022-10-31T07:16:52;41.93;;;17.90;;
10479;SDS011;12789;42.610;23.040;2022-10-31T07:19:19;50.67;;;19.60;;
10479;SDS011;12789;42.610;23.040;2022-10-31T07:21:46;41.07;;;20.23;;
10479;SDS011;12789;42.610;23.040;2022-10-31T07:24:13;42.63;;;19.43;;
10479;SDS011;12789;42.610;23.040;2022-10-31T07:26:42;93.30;;;42.20;;
10479;SDS011;12789;42.610;23.040;2022-10-31T07:29:11;57.80;;;22.87;;
10479;SDS011;12789;42.610;23.040;2022-10-31T07:31:38;46.30;;;19.03;;
10479;SDS011;12789;42.610;23.040;2022-10-31T07:34:05;45.63;;;21.60;;
10479;SDS011;12789;42.610;23.040;2022-10-31T07:36:32;48.73;;;25.07;;
10479;SDS011;12789;42.610;23.040;2022-10-31T07:38:59;40.40;;;16.23;;
10479;SDS011;12789;42.610;23.040;2022-10-31T07:41:27;38.27;;;13.97;;
10479;SDS011;12789;42.610;23.040;2022-10-31T07:43:56;30.63;;;13.90;;
10479;SDS011;12789;42.610;23.040;2022-10-31T07:46:24;29.23;;;12.00;;
10479;SDS011;12789;42.610;23.040;2022-10-31T07:48:51;19.00;;;10.30;;
10479;SDS011;12789;42.610;23.040;2022-10-31T07:51:18;21.53;;;9.60;;
10479;SDS011;12789;42.610;23.040;2022-10-31T07:53:45;18.97;;;10.50;;
10479;SDS011;12789;42.610;23.040;2022-10-31T07:56:13;25.27;;;10.83;;
10479;SDS011;12789;42.610;23.040;2022-10-31T07:58:40;19.37;;;8.50;;
10479;SDS011;12789;42.610;23.040;2022-10-31T08:01:15;19.83;;;8.77;;
10479;SDS011;12789;42.610;23.040;2022-10-31T08:03:48;17.10;;;6.60;;
10479;SDS011;12789;42.610;23.040;2022-10-31T08:06:16;11.27;;;6.60;;
10479;SDS011;12789;42.610;23.040;2022-10-31T08:08:47;6.53;;;4.53;;
10479;SDS011;12789;42.610;23.040;2022-10-31T08:11:15;8.45;;;4.63;;
10479;SDS011;12789;42.610;23.040;2022-10-31T08:13:42;7.32;;;4.25;;
10479;SDS011;12789;42.610;23.040;2022-10-31T08:16:09;6.07;;;4.22;;
10479;SDS011;12789;42.610;23.040;2022-10-31T08:18:38;9.20;;;4.50;;
10479;SDS011;12789;42.610;23.040;2022-10-31T08:21:05;8.25;;;4.03;;
10479;SDS011;12789;42.610;23.040;2022-10-31T08:23:32;10.48;;;3.97;;
10479;SDS011;12789;42.610;23.040;2022-10-31T08:26:00;5.95;;;3.58;;
10479;SDS011;12789;42.610;23.040;2022-10-31T08:28:27;7.57;;;3.88;;
10479;SDS011;12789;42.610;23.040;2022-10-31T08:30:54;8.82;;;4.60;;
10479;SDS011;12789;42.610;23.040;2022-10-31T08:33:24;8.60;;;4.10;;
10479;SDS011;12789;42.610;23.040;2022-10-31T08:35:54;10.68;;;4.50;;
10479;SDS011;12789;42.610;23.040;2022-10-31T08:38:21;8.77;;;4.53;;
10479;SDS011;12789;42.610;23.040;2022-10-31T08:40:50;9.70;;;3.97;;
10479;SDS011;12789;42.610;23.040;2022-10-31T08:43:17;9.82;;;4.20;;
10479;SDS011;12789;42.610;23.040;2022-10-31T08:45:46;7.32;;;3.95;;
10479;SDS011;12789;42.610;23.040;2022-10-31T08:48:15;7.07;;;3.90;;
10479;SDS011;12789;42.610;23.040;2022-10-31T08:50:45;7.28;;;3.90;;
10479;SDS011;12789;42.610;23.040;2022-10-31T08:53:18;5.90;;;3.88;;
10479;SDS011;12789;42.610;23.040;2022-10-31T08:55:47;4.18;;;3.78;;
10479;SDS011;12789;42.610;23.040;2022-10-31T08:58:15;8.27;;;4.07;;
10479;SDS011;12789;42.610;23.040;2022-10-31T09:00:45;7.00;;;3.75;;
10479;SDS011;12789;42.610;23.040;2022-10-31T09:03:14;8.32;;;3.78;;
10479;SDS011;12789;42.610;23.040;2022-10-31T09:05:44;7.35;;;3.70;;
10479;SDS011;12789;42.610;23.040;2022-10-31T09:08:12;5.95;;;3.25;;
10479;SDS011;12789;42.610;23.040;2022-10-31T09:10:43;8.75;;;3.60;;
10479;SDS011;12789;42.610;23.040;2022-10-31T09:13:11;5.35;;;3.55;;
10479;SDS011;12789;42.610;23.040;2022-10-31T09:15:40;6.78;;;3.78;;
10479;SDS011;12789;42.610;23.040;2022-10-31T09:18:09;8.70;;;3.90;;
10479;SDS011;12789;42.610;23.040;2022-10-31T09:20:37;4.75;;;2.80;;
10479;SDS011;12789;42.610;23.040;2022-10-31T09:23:06;7.30;;;2.85;;
10479;SDS011;12789;42.610;23.040;2022-10-31T09:25:36;4.75;;;2.85;;
10479;SDS011;12789;42.610;23.040;2022-10-31T09:28:06;3.72;;;2.15;;
10479;SDS011;12789;42.610;23.040;2022-10-31T09:30:35;3.80;;;2.40;;
10479;SDS011;12789;42.610;23.040;2022-10-31T09:33:04;8.38;;;2.80;;
10479;SDS011;12789;42.610;23.040;2022-10-31T09:35:33;5.13;;;3.17;;
10479;SDS011;12789;42.610;23.040;2022-10-31T09:38:01;4.90;;;2.38;;
10479;SDS011;12789;42.610;23.040;2022-10-31T09:40:31;2.92;;;2.08;;
10479;SDS011;12789;42.610;23.040;2022-10-31T09:43:03;9.18;;;2.45;;
10479;SDS011;12789;42.610;23.040;2022-10-31T09:46:16;4.57;;;2.70;;
10479;SDS011;12789;42.610;23.040;2022-10-31T09:48:59;4.72;;;2.15;;
10479;SDS011;12789;42.610;23.040;2022-10-31T09:51:43;7.10;;;2.25;;
10479;SDS011;12789;42.610;23.040;2022-10-31T09:54:18;7.70;;;3.40;;
10479;SDS011;12789;42.610;23.040;2022-10-31T09:56:52;6.00;;;3.10;;
10479;SDS011;12789;42.610;23.040;2022-10-31T09:59:24;3.95;;;3.53;;
10479;SDS011;12789;42.610;23.040;2022-10-31T10:02:00;10.23;;;3.33;;
10479;SDS011;12789;42.610;23.040;2022-10-31T10:04:32;6.72;;;3.97;;
10479;SDS011;12789;42.610;23.040;2022-10-31T10:07:07;9.00;;;5.65;;
10479;SDS011;12789;42.610;23.040;2022-10-31T10:09:40;6.32;;;2.70;;
10479;SDS011;12789;42.610;23.040;2022-10-31T10:12:09;4.25;;;2.83;;
10479;SDS011;12789;42.610;23.040;2022-10-31T10:14:51;3.88;;;2.45;;
10479;SDS011;12789;42.610;23.040;2022-10-31T10:17:36;2.78;;;2.10;;
10479;SDS011;12789;42.610;23.040;2022-10-31T10:20:23;8.63;;;3.40;;
10479;SDS011;12789;42.610;23.040;2022-10-31T10:23:02;4.03;;;3.10;;
10479;SDS011;12789;42.610;23.040;2022-10-31T10:25:56;6.32;;;2.20;;
10479;SDS011;12789;42.610;23.040;2022-10-31T10:28:29;4.45;;;2.40;;
10479;SDS011;12789;42.610;23.040;2022-10-31T10:31:04;5.28;;;2.58;;
10479;SDS011;12789;42.610;23.040;2022-10-31T10:33:36;4.43;;;2.80;;
10479;SDS011;12789;42.610;23.040;2022-10-31T10:36:08;3.92;;;2.47;;
10479;SDS011;12789;42.610;23.040;2022-10-31T10:38:43;5.97;;;2.30;;
10479;SDS011;12789;42.610;23.040;2022-10-31T10:41:17;6.78;;;2.80;;
10479;SDS011;12789;42.610;23.040;2022-10-31T10:43:48;5.57;;;2.58;;
10479;SDS011;12789;42.610;23.040;2022-10-31T10:46:19;6.70;;;2.40;;
10479;SDS011;12789;42.610;23.040;2022-10-31T10:49:12;5.60;;;2.83;;
10479;SDS011;12789;42.610;23.040;2022-10-31T10:51:44;12.18;;;3.22;;
10479;SDS011;12789;42.610;23.040;2022-10-31T10:54:16;11.55;;;3.25;;
10479;SDS011;12789;42.610;23.040;2022-10-31T10:56:54;3.15;;;2.53;;
10479;SDS011;12789;42.610;23.040;2022-10-31T11:06:59;9.25;;;2.78;;
10479;SDS011;12789;42.610;23.040;2022-10-31T11:09:27;10.30;;;2.92;;
10479;SDS011;12789;42.610;23.040;2022-10-31T11:11:55;4.90;;;2.60;;
10479;SDS011;12789;42.610;23.040;2022-10-31T11:14:23;10.05;;;2.90;;
10479;SDS011;12789;42.610;23.040;2022-10-31T11:16:52;3.72;;;2.40;;
10479;SDS011;12789;42.610;23.040;2022-10-31T11:19:22;9.18;;;3.65;;
10479;SDS011;12789;42.610;23.040;2022-10-31T11:29:16;7.40;;;3.35;;
10479;SDS011;12789;42.610;23.040;2022-10-31T11:31:51;12.43;;;4.27;;
10479;SDS011;12789;42.610;23.040;2022-10-31T11:34:25;14.00;;;4.80;;
10479;SDS011;12789;42.610;23.040;2022-10-31T11:36:59;9.50;;;4.10;;
10479;SDS011;12789;42.610;23.040;2022-10-31T11:39:30;12.30;;;7.20;;
10479;SDS011;12789;42.610;23.040;2022-10-31T11:44:27;16.95;;;7.22;;
10479;SDS011;12789;42.610;23.040;2022-10-31T11:46:58;12.80;;;7.38;;
10479;SDS011;12789;42.610;23.040;2022-10-31T11:49:28;15.85;;;8.70;;
10479;SDS011;12789;42.610;23.040;2022-10-31T11:52:00;10.32;;;6.47;;
10479;SDS011;12789;42.610;23.040;2022-10-31T11:54:31;22.75;;;11.90;;
10479;SDS011;12789;42.610;23.040;2022-10-31T11:57:04;12.13;;;7.85;;
10479;SDS011;12789;42.610;23.040;2022-10-31T11:59:31;9.75;;;5.20;;
10479;SDS011;12789;42.610;23.040;2022-10-31T12:01:58;11.23;;;2.63;;
10479;SDS011;12789;42.610;23.040;2022-10-31T12:04:35;12.48;;;5.18;;
10479;SDS011;12789;42.610;23.040;2022-10-31T12:07:08;10.45;;;3.80;;
10479;SDS011;12789;42.610;23.040;2022-10-31T12:09:36;13.38;;;4.00;;
10479;SDS011;12789;42.610;23.040;2022-10-31T12:12:18;11.18;;;3.30;;
10479;SDS011;12789;42.610;23.040;2022-10-31T12:14:59;10.82;;;3.50;;
10479;SDS011;12789;42.610;23.040;2022-10-31T12:17:39;9.65;;;3.10;;
10479;SDS011;12789;42.610;23.040;2022-10-31T12:20:13;8.00;;;3.10;;
10479;SDS011;12789;42.610;23.040;2022-10-31T12:22:54;7.43;;;2.50;;
10479;SDS011;12789;42.610;23.040;2022-10-31T12:25:31;13.07;;;3.20;;
10479;SDS011;12789;42.610;23.040;2022-10-31T12:28:15;9.55;;;3.00;;
10479;SDS011;12789;42.610;23.040;2022-10-31T12:31:12;12.25;;;2.85;;
10479;SDS011;12789;42.610;23.040;2022-10-31T12:33:55;10.90;;;2.90;;
10479;SDS011;12789;42.610;23.040;2022-10-31T12:36:37;16.77;;;3.40;;
10479;SDS011;12789;42.610;23.040;2022-10-31T12:39:19;11.35;;;3.30;;
10479;SDS011;12789;42.610;23.040;2022-10-31T12:41:57;10.43;;;3.13;;
10479;SDS011;12789;42.610;23.040;2022-10-31T12:44:42;10.93;;;3.22;;
10479;SDS011;12789;42.610;23.040;2022-10-31T12:47:26;9.25;;;3.03;;
10479;SDS011;12789;42.610;23.040;2022-10-31T12:50:27;10.95;;;3.28;;
10479;SDS011;12789;42.610;23.040;2022-10-31T12:53:08;12.45;;;3.08;;
10479;SDS011;12789;42.610;23.040;2022-10-31T12:55:54;5.68;;;2.97;;
10479;SDS011;12789;42.610;23.040;2022-10-31T12:58:30;6.88;;;2.78;;
10479;SDS011;12789;42.610;23.040;2022-10-31T13:01:03;5.22;;;3.55;;
10479;SDS011;12789;42.610;23.040;2022-10-31T13:03:37;14.30;;;2.85;;
10479;SDS011;12789;42.610;23.040;2022-10-31T13:06:13;6.45;;;2.85;;
10479;SDS011;12789;42.610;23.040;2022-10-31T13:08:45;4.28;;;2.63;;
10479;SDS011;12789;42.610;23.040;2022-10-31T13:11:20;6.18;;;2.80;;
10479;SDS011;12789;42.610;23.040;2022-10-31T13:13:53;4.80;;;3.15;;
10479;SDS011;12789;42.610;23.040;2022-10-31T13:16:25;9.63;;;3.35;;
10479;SDS011;12789;42.610;23.040;2022-10-31T13:18:58;6.82;;;3.25;;
10479;SDS011;12789;42.610;23.040;2022-10-31T13:21:35;7.00;;;3.40;;
10479;SDS011;12789;42.610;23.040;2022-10-31T13:24:09;5.82;;;3.10;;
10479;SDS011;12789;42.610;23.040;2022-10-31T13:26:43;9.60;;;3.00;;
10479;SDS011;12789;42.610;23.040;2022-10-31T13:29:15;8.40;;;2.85;;
10479;SDS011;12789;42.610;23.040;2022-10-31T13:31:47;11.65;;;2.95;;
10479;SDS011;12789;42.610;23.040;2022-10-31T13:34:19;4.15;;;2.15;;
10479;SDS011;12789;42.610;23.040;2022-10-31T13:36:55;6.05;;;2.13;;
10479;SDS011;12789;42.610;23.040;2022-10-31T13:39:30;10.02;;;2.42;;
10479;SDS011;12789;42.610;23.040;2022-10-31T13:42:11;8.15;;;2.95;;
10479;SDS011;12789;42.610;23.040;2022-10-31T13:44:42;10.13;;;3.30;;
10479;SDS011;12789;42.610;23.040;2022-10-31T13:47:23;17.85;;;8.13;;
10479;SDS011;12789;42.610;23.040;2022-10-31T13:50:02;4.07;;;3.22;;
10479;SDS011;12789;42.610;23.040;2022-10-31T13:52:32;10.75;;;5.30;;
10479;SDS011;12789;42.610;23.040;2022-10-31T13:54:59;11.93;;;5.47;;
10479;SDS011;12789;42.610;23.040;2022-10-31T13:57:41;10.30;;;5.35;;
10479;SDS011;12789;42.610;23.040;2022-10-31T14:00:22;15.40;;;4.50;;
10479;SDS011;12789;42.610;23.040;2022-10-31T14:02:51;10.20;;;4.78;;
10479;SDS011;12789;42.610;23.040;2022-10-31T14:05:22;11.07;;;3.70;;
10479;SDS011;12789;42.610;23.040;2022-10-31T14:07:52;11.98;;;5.13;;
10479;SDS011;12789;42.610;23.040;2022-10-31T14:10:22;15.75;;;4.80;;
10479;SDS011;12789;42.610;23.040;2022-10-31T14:12:55;14.65;;;7.00;;
10479;SDS011;12789;42.610;23.040;2022-10-31T14:15:31;8.25;;;3.60;;
10479;SDS011;12789;42.610;23.040;2022-10-31T14:18:00;11.75;;;6.20;;
10479;SDS011;12789;42.610;23.040;2022-10-31T14:20:36;9.48;;;4.00;;
10479;SDS011;12789;42.610;23.040;2022-10-31T14:26:16;7.93;;;3.22;;
10479;SDS011;12789;42.610;23.040;2022-10-31T14:28:58;9.23;;;3.50;;
10479;SDS011;12789;42.610;23.040;2022-10-31T14:31:32;7.00;;;2.78;;
10479;SDS011;12789;42.610;23.040;2022-10-31T14:34:04;7.63;;;2.97;;
10479;SDS011;12789;42.610;23.040;2022-10-31T14:36:48;12.10;;;3.03;;
10479;SDS011;12789;42.610;23.040;2022-10-31T14:39:24;9.63;;;3.10;;
10479;SDS011;12789;42.610;23.040;2022-10-31T14:42:00;7.55;;;3.53;;
10479;SDS011;12789;42.610;23.040;2022-10-31T14:44:54;9.40;;;2.97;;
10479;SDS011;12789;42.610;23.040;2022-10-31T14:47:36;9.07;;;3.30;;
10479;SDS011;12789;42.610;23.040;2022-10-31T14:50:14;9.30;;;3.65;;
10479;SDS011;12789;42.610;23.040;2022-10-31T14:52:49;6.40;;;3.25;;
10479;SDS011;12789;42.610;23.040;2022-10-31T14:55:20;8.60;;;3.28;;
10479;SDS011;12789;42.610;23.040;2022-10-31T14:57:50;8.45;;;3.38;;
10479;SDS011;12789;42.610;23.040;2022-10-31T15:00:22;10.70;;;3.10;;
10479;SDS011;12789;42.610;23.040;2022-10-31T15:02:54;7.43;;;3.55;;
10479;SDS011;12789;42.610;23.040;2022-10-31T15:05:31;5.97;;;3.50;;
10479;SDS011;12789;42.610;23.040;2022-10-31T15:07:59;21.85;;;11.68;;